Blue Oak Ranch Reserve, California Weather observations

Data are for 10 minute period ending at time listed.
 Day   Time   Solar   Ave.   Ave.  Ave.  Vector  Max.   Baro.   Total    
  of    of     Rad.   Air    Rel.  Wind   Wind   Wind  Press.  Precip.   
Year   Day            Temp.  Hum.  Speed  Dir.   Gust                    
2018   (PST)  Kw/m2    F      %     mph   deg.    mph    mb.     in.     
-------------------------------------------------------------------------
 170    4:40   0.00   49.9    84    0.6     8     1.4   949.8    0.00 
 170    4:50   0.01   49.9    84    0.4   343     1.2   949.9    0.00 
 170    5:00   0.01   50.3    83    0.2   282     0.7   950.0    0.00 
 170    5:10   0.02   50.6    83    0.4    89     0.8   950.0    0.00 
 170    5:20   0.02   50.8    82    0.1    55     0.6   950.0    0.00 
 170    5:30   0.02   51.0    82    0.4    48     0.9   950.1    0.00 
 170    5:40   0.02   50.8    82    0.6   302     1.4   950.3    0.00 
 170    5:50   0.05   50.6    83    0.5    58     1.2   950.4    0.00 
 170    6:00   0.11   51.7    82    0.3    52     0.9   950.4    0.00 
 170    6:10   0.16   54.2    78    0.8   285     1.4   950.5    0.00 
 170    6:20   0.17   56.6    71    0.3   294     0.8   950.6    0.00 
 170    6:30   0.23   60.0    65    0.0    72     0.4   950.6    0.00 
 170    6:40   0.26   65.2    55    0.3    77     0.8   950.6    0.00 
 170    6:50   0.29   67.2    52    0.6   108     1.1   950.7    0.00 
 170    7:00   0.32   67.0    50    0.3   140     0.9   950.7    0.00 
 170    7:10   0.35   69.8    47    0.0   136     0.4   950.7    0.00 
 170    7:20   0.38   72.3    43    0.1   108     0.4   950.8    0.00 
 170    7:30   0.41   73.5    43    0.2   148     0.9   950.8    0.00 
 170    7:40   0.44   74.4    43    0.9   243     1.8   950.8    0.00 
 170    7:50   0.47   74.9    42    1.1   227     1.8   950.8    0.00 
 170    8:00   0.49   74.9    42    1.1   227     2.1   950.8    0.00 
 170    8:10   0.52   75.2    42    1.6   241     2.7   950.8    0.00 
 170    8:20   0.55   73.4    42    2.3   229     3.4   950.8    0.00 
 170    8:30   0.58   71.7    43    2.5   245     4.5   950.9    0.00 
 170    8:40   0.60   70.5    47    1.9   256     3.2   950.9    0.00 
 170    8:50   0.63   72.1    46    1.1   204     2.2   950.8    0.00 
 170    9:00   0.65   71.9    44    1.9   227     3.4   950.8    0.00 
 170    9:10   0.68   71.7    46    2.0   241     3.6   950.9    0.00 
 170    9:20   0.70   72.2    47    1.9   265     3.2   951.0    0.00 
 170    9:30   0.72   71.9    47    1.7   261     2.9   951.0    0.00 
 170    9:40   0.74   73.3    46    2.1   268     3.4   951.0    0.00 
 170    9:50   0.76   75.4    42    2.0   274     3.2   951.1    0.00 
 170   10:00   0.78   75.4    43    2.3   271     3.4   951.1    0.00 
 170   10:10   0.80   75.2    44    2.1   265     3.8   951.1    0.00 
 170   10:20   0.82   74.8    44    2.1   244     3.8   951.1    0.00 
 170   10:30   0.83   73.3    46    2.3   229     4.3   951.0    0.00 
 170   10:40   0.84   73.5    47    2.9   226     4.4   951.0    0.00 
 170   10:50   0.85   74.2    47    2.3   240     4.3   950.9    0.00 
 170   11:00   0.87   74.9    46    2.1   248     3.9   950.9    0.00 
 170   11:10   0.88   75.3    46    2.1   242     4.2   950.9    0.00 
 170   11:20   0.89   74.8    47    2.2   242     4.4   950.9    0.00 
 170   11:30   0.89   75.6    46    2.5   260     4.7   950.8    0.00 
 170   11:40   0.90   75.6    46    2.6   235     4.7   950.7    0.00 
 170   11:50   0.90   75.9    46    2.8   246     5.2   950.8    0.00 
 170   12:00   0.90   74.5    48    2.7   238     5.2   950.8    0.00 
 170   12:10   0.90   73.3    50    2.8   232     5.1   950.9    0.00 
 170   12:20   0.90   74.0    49    2.2   253     4.2   950.9    0.00 
 170   12:30   0.90   75.9    46    2.0   249     4.1   950.7    0.00 
 170   12:40   0.90   76.7    45    2.6   235     5.1   950.6    0.00 
 170   12:50   0.87   77.2    45    3.1   246     5.7   950.6    0.00 
 170   13:00   0.89   76.9    46    3.4   264     5.8   950.6    0.00 
 170   13:10   0.88   76.0    47    3.5   256     5.6   950.6    0.00 
 170   13:20   0.87   75.9    47    3.3   257     5.9   950.7    0.00 
 170   13:30   0.86   75.1    47    3.4   246     5.5   950.8    0.00 
 170   13:40   0.85   75.4    47    2.6   245     5.2   950.7    0.00 
 170   13:50   0.84   77.3    43    2.6   250     4.9   950.7    0.00 
 170   14:00   0.83   78.1    43    2.8   252     4.6   950.6    0.00 
 170   14:10   0.81   78.7    42    2.7   241     4.5   950.6    0.00 
 170   14:20   0.80   78.6    43    2.9   251     4.6   950.5    0.00 
 170   14:30   0.78   78.8    42    3.2   251     4.6   950.5    0.00 
 170   14:40   0.76   79.1    41    2.7   257     4.5   950.5    0.00 
 170   14:50   0.74   80.3    39    2.9   266     4.8   950.4    0.00 
 170   15:00   0.72   81.0    39    2.7   260     4.3   950.3    0.00 
 170   15:10   0.70   80.5    39    2.8   244     4.9   950.3    0.00 
 170   15:20   0.67   79.6    41    2.5   243     5.7   950.3    0.00 
 170   15:30   0.65   78.9    41    3.2   243     5.5   950.3    0.00 
 170   15:40   0.62   78.1    43    2.9   248     4.9   950.3    0.00 
 170   15:50   0.59   78.1    43    2.7   245     4.7   950.2    0.00 
 170   16:00   0.57   79.6    42    2.4   260     4.1   950.2    0.00 
 170   16:10   0.54   79.7    42    3.0   260     5.2   950.2    0.00 
 170   16:20   0.51   78.2    45    2.4   248     4.1   950.2    0.00 
 170   16:30   0.48   78.2    45    2.6   253     4.9   950.1    0.00 
 170   16:40   0.45   76.9    46    2.6   249     5.4   950.1    0.00 
 170   16:50   0.42   75.6    48    2.3   243     4.7   950.2    0.00 
 170   17:00   0.40   74.9    48    2.5   247     4.5   950.2    0.00 
 170   17:10   0.36   74.1    49    2.2   245     4.9   950.2    0.00 
 170   17:20   0.34   74.2    49    2.7   256     4.6   950.1    0.00 
 170   17:30   0.31   74.1    49    2.4   247     4.2   950.1    0.00 
 170   17:40   100.00  99999.0   99999  99999.0   99999   99999.0   99999.0   99999.00 
 170   17:50   100.00  99999.0   99999  99999.0   99999   99999.0   99999.0   99999.00 
 170   18:00   100.00  99999.0   99999  99999.0   99999   99999.0   99999.0   99999.00 
 170   18:10   100.00  99999.0   99999  99999.0   99999   99999.0   99999.0   99999.00 
 170   18:20   0.17   73.2    44    2.6   279     4.4   950.3    0.00 
 170   18:30   0.14   72.3    48    2.2   248     3.4   950.4    0.00 
 170   18:40   0.12   70.0    52    1.8   247     3.1   950.4    0.00 
 170   18:50   0.09   69.4    51    1.5   259     2.6   950.5    0.00 
 170   19:00   0.06   69.3    50    1.0   282     2.0   950.4    0.00 
 170   19:10   0.04   67.6    50    1.2   296     2.0   950.4    0.00 
 170   19:20   0.01   65.9    51    1.4   301     2.3   950.4    0.00 
 170   19:30   0.01   64.3    53    1.2   335     1.7   950.5    0.00 
 170   19:40   0.00   63.5    54    1.2   318     1.9   950.5    0.00 
 170   19:50   0.00   62.7    54    1.1   330     2.5   950.5    0.00 
 170   20:00   0.00   61.4    58    0.4   311     1.2   950.5    0.00 
 170   20:10   0.00   59.7    61    0.2   292     1.0   950.5    0.00 
 170   20:20   0.00   58.8    62    0.3   291     0.9   950.6    0.00 
 170   20:30   0.00   57.8    63    0.5   310     1.4   950.6    0.00 
 170   20:40   0.00   57.3    63    0.3   304     1.3   950.6    0.00 
 170   20:50   0.00   56.4    65    0.2   274     1.5   950.7    0.00 
 170   21:00   0.00   55.7    67    0.5   339     1.4   950.8    0.00 
 170   21:10   0.00   55.0    68    0.1   300     0.9   950.8    0.00 
 170   21:20   0.00   54.3    69    0.1   315     0.9   950.7    0.00 
 170   21:30   0.00   53.7    70    0.1   317     1.0   950.7    0.00 
 170   21:40   0.00   53.4    71    0.0   289     0.8   950.8    0.00 
 170   21:50   0.00   53.3    70    0.6    54     1.1   950.8    0.00 
 170   22:00   0.00   53.4    70    0.2    58     0.8   950.7    0.00 
 170   22:10   0.00   53.1    70    0.6    10     1.2   950.5    0.00 
 170   22:20   0.00   52.8    70    0.8   282     1.2   950.3    0.00 
 170   22:30   0.00   52.4    70    1.6   286     2.5   950.2    0.00 
 170   22:40   0.00   52.3    70    0.2   269     1.1   950.2    0.00 
 170   22:50   0.00   52.2    72    0.0     0     0.0   950.2    0.00 
 170   23:00   0.00   52.0    73    0.0     0     0.0   950.2    0.00 
 170   23:10   0.00   51.7    73    0.0     0     0.0   950.1    0.00 
 170   23:20   0.00   51.7    72    0.0     0     0.0   950.0    0.00 
 170   23:30   0.00   51.5    72    0.1    30     0.4   949.9    0.00 
 170   23:40   0.00   51.5    72    0.0     0     0.0   949.9    0.00 
 170   23:50   0.00   52.0    70    0.0    29     0.2   949.8    0.00 
 171    0:00   0.00   51.9    70    0.2   349     0.6   949.7    0.00 
 171    0:10   0.00   51.8    70    0.0     0     0.0   949.6    0.00 
 171    0:20   0.00   52.0    70    0.0    29     0.3   949.5    0.00 
 171    0:30   100.00  99999.0   99999  99999.0   99999   99999.0   99999.0   99999.00 
 171    0:40   100.00  99999.0   99999  99999.0   99999   99999.0   99999.0   99999.00 
 171    0:50   100.00  99999.0   99999  99999.0   99999   99999.0   99999.0   99999.00 
 171    1:00   100.00  99999.0   99999  99999.0   99999   99999.0   99999.0   99999.00 
 171    1:10   0.00   51.8    70    0.0   323     0.4   949.4    0.00 
 171    1:20   0.00   51.6    69    0.2   293     0.8   949.4    0.00 
 171    1:30   0.00   51.2    70    0.2    47     0.5   949.4    0.00 
 171    1:40   0.00   50.4    71    0.4    41     0.8   949.4    0.00 
 171    1:50   0.00   50.0    73    0.0    33     0.1   949.4    0.00 
 171    2:00   0.00   50.1    73    0.0     0     0.0   949.3    0.00 
 171    2:10   0.00   50.0    72    0.0     0     0.0   949.3    0.00 
 171    2:20   0.00   49.9    73    0.0     1     0.2   949.2    0.00 
 171    2:30   0.00   49.8    72    0.1    43     0.6   949.2    0.00 
 171    2:40   0.00   49.7    72    0.0     0     0.0   949.2    0.00 
 171    2:50   0.00   49.7    72    0.0    34     0.2   949.1    0.00 
 171    3:00   0.00   49.5    73    0.0   342     0.3   949.1    0.00 
 171    3:10   0.00   49.2    74    0.0     0     0.0   949.1    0.00 
 171    3:20   0.00   49.1    73    0.4    46     0.8   949.2    0.00 
 171    3:30   0.00   48.6    74    0.0    45     0.6   949.2    0.00 
 171    3:40   0.00   48.3    75    0.2   321     0.6   949.2    0.00 
 171    3:50   0.00   48.0    76    0.4    19     0.8   949.1    0.00 
 171    4:00   0.00   47.4    77    0.8   290     1.2   949.1    0.00 
 171    4:10   0.00   47.2    78    0.5   295     0.8   949.1    0.00 
 171    4:20   0.00   47.2    78    0.2   333     0.8   949.2    0.00 
 171    4:30   0.00   47.0    80    0.2   254     0.8   949.2    0.00 

Return to Blue Oak Ranch Reserve graphs page.


Western Regional Climate Center,wrcc@dri.edu